Terminal Aerodrome Forecast
Issued by NWS

Home | Current Version | Previous Version | Text Only | Print | Product List | Glossary On
Versions: 1 2 3 4 5 6 7 8 9 10 11 12 13 14 15 16 17 18 19
000
FTUS43 KDLH 280500
TAFBRD
TAF
KBRD 280520Z 2806/2906 36007KT P6SM BKN050
     FM281500 35010KT P6SM SCT050
     FM282300 35009KT P6SM SCT050 SCT100=

USA.gov is the U.S. government's official web portal to all federal, state and local government web resources and services.